Taylor Ridge, Illinois
Current Conditions -  °F | °C
As of 6:52 PM on Friday 24 Oct 2014 (Local Time) from KMLI Reporting Station
Overcast Overcast  
Wind Chill: 66°   Ceiling: 3000
Heat Index: 66°   Visibility: 7mi
Dew Point: 54°   Wind: 10mph
Humidity: 65%   Direction: 270°W
Pressure: 29.93"   Gusts: NA
Location:  41.39°N, 90.67°W
Report Text: KMLI 242352Z 27009KT 7SM OVC030 19/12 A2993 RMK AO2 PRESRR SLP136 T01890122 10211 20178 55000
Loading
Personal Weather Stations






























Interactive Weather Map
Tropical Storm Tracking
New forecast layout! Learn more

10-Day Weather Forecast

Advertisements
Track Severe Weather on mobile